createdAt,value
2023-01-28T00:01:57.381Z,0.51
2023-01-28T00:04:24.846Z,0.44
2023-01-28T00:06:53.817Z,0.41
2023-01-28T00:09:21.141Z,0.47
2023-01-28T00:11:48.487Z,0.51
2023-01-28T00:14:15.820Z,0.50
2023-01-28T00:16:43.121Z,0.44
2023-01-28T00:19:10.486Z,0.46
2023-01-28T00:21:37.903Z,0.50
2023-01-28T00:24:07.142Z,0.54
2023-01-28T00:26:34.518Z,0.50
2023-01-28T00:29:01.805Z,0.56
2023-01-28T00:31:29.324Z,0.60
2023-01-28T00:33:56.907Z,0.51
2023-01-28T00:36:24.893Z,0.47
2023-01-28T00:38:53.486Z,0.54
2023-01-28T00:41:22.216Z,0.53
2023-01-28T00:43:51.590Z,0.47
2023-01-28T00:46:19.280Z,0.54
2023-01-28T00:48:46.582Z,0.49
2023-01-28T00:51:14.911Z,0.53
2023-01-28T00:53:43.399Z,0.49
2023-01-28T00:56:16.535Z,0.56
2023-01-28T00:58:44.806Z,0.50
2023-01-28T01:01:26.502Z,0.54
2023-01-28T01:04:03.479Z,0.62
2023-01-28T01:06:36.477Z,0.51
2023-01-28T01:09:06.807Z,0.60
2023-01-28T01:11:35.724Z,0.51
2023-01-28T01:14:05.324Z,0.47
2023-01-28T01:16:33.656Z,0.43
2023-01-28T01:19:01.074Z,0.46
2023-01-28T01:21:29.181Z,0.47
2023-01-28T01:23:56.768Z,0.41
2023-01-28T01:26:24.482Z,0.40
2023-01-28T01:28:52.441Z,0.41
2023-01-28T01:31:20.620Z,0.41
2023-01-28T01:33:48.935Z,0.56
2023-01-28T01:36:17.335Z,0.51
2023-01-28T01:38:44.973Z,0.43
2023-01-28T01:41:24.138Z,0.46
2023-01-28T01:43:53.640Z,0.43
2023-01-28T01:46:35.519Z,0.53
2023-01-28T01:49:12.007Z,0.61
2023-01-28T01:51:39.288Z,0.61
2023-01-28T01:54:06.586Z,0.65
2023-01-28T01:56:38.046Z,0.58
2023-01-28T01:59:05.317Z,0.50
2023-01-28T02:01:32.747Z,0.50
2023-01-28T02:04:10.732Z,0.41
2023-01-28T02:06:38.181Z,0.49
2023-01-28T02:09:29.550Z,0.58
2023-01-28T02:11:59.129Z,0.56
2023-01-28T02:14:31.514Z,0.54
2023-01-28T02:17:00.467Z,0.54
2023-01-28T02:19:39.754Z,0.47
2023-01-28T02:22:25.412Z,0.54
2023-01-28T02:25:15.983Z,0.57
2023-01-28T02:28:01.882Z,0.68
2023-01-28T02:30:31.314Z,0.58
2023-01-28T02:33:25.466Z,0.61
2023-01-28T02:35:53.717Z,0.47
2023-01-28T02:38:22.752Z,0.43
2023-01-28T02:41:06.601Z,0.44
2023-01-28T02:43:44.787Z,0.43
2023-01-28T02:46:50.752Z,0.53
2023-01-28T02:49:36.197Z,0.58
2023-01-28T02:52:56.381Z,0.49
2023-01-28T02:55:39.347Z,0.50
2023-01-28T02:58:34.697Z,0.53
2023-01-28T03:01:15.381Z,0.61
2023-01-28T03:03:47.796Z,0.61
2023-01-28T03:06:16.438Z,0.51
2023-01-28T03:09:05.647Z,0.49
2023-01-28T03:11:53.503Z,0.53
2023-01-28T03:14:39.185Z,0.53
2023-01-28T03:17:27.151Z,0.49
2023-01-28T03:20:13.355Z,0.51
2023-01-28T03:23:00.398Z,0.58
2023-01-28T03:25:46.309Z,0.47
2023-01-28T03:28:35.701Z,0.51
2023-01-28T03:31:31.351Z,0.64
2023-01-28T03:34:18.699Z,0.57
2023-01-28T03:36:49.806Z,0.58
2023-01-28T03:39:37.692Z,0.51
2023-01-28T03:42:10.742Z,0.49
2023-01-28T03:44:51.665Z,0.51
2023-01-28T03:47:20.934Z,0.57
2023-01-28T03:49:49.720Z,0.56
2023-01-28T03:52:22.842Z,0.56
2023-01-28T03:54:52.899Z,0.58
2023-01-28T03:57:22.424Z,0.56
2023-01-28T03:59:50.029Z,0.60
2023-01-28T04:02:18.186Z,0.61
2023-01-28T04:04:47.032Z,0.56
2023-01-28T04:07:15.791Z,0.57
2023-01-28T04:10:02.036Z,0.58
2023-01-28T04:12:50.000Z,0.57
2023-01-28T04:15:19.382Z,0.64
2023-01-28T04:17:48.996Z,0.64
2023-01-28T04:20:24.783Z,0.71
2023-01-28T04:22:52.111Z,0.65
2023-01-28T04:25:21.397Z,0.60
2023-01-28T04:27:49.009Z,0.64
2023-01-28T04:30:22.415Z,0.54
2023-01-28T04:33:08.325Z,0.58
2023-01-28T04:35:54.078Z,0.61
2023-01-28T04:38:30.024Z,0.67
2023-01-28T04:41:04.863Z,0.60
2023-01-28T04:43:34.508Z,0.53
2023-01-28T04:46:20.309Z,0.57
2023-01-28T04:49:13.797Z,0.62
2023-01-28T04:51:49.991Z,0.64
2023-01-28T04:54:41.555Z,0.65
2023-01-28T04:57:09.268Z,0.62
2023-01-28T04:59:36.664Z,0.53
2023-01-28T05:02:04.803Z,0.57
2023-01-28T05:04:32.177Z,0.62
2023-01-28T05:06:59.669Z,0.54
2023-01-28T05:09:32.272Z,0.57
2023-01-28T05:11:59.748Z,0.65
2023-01-28T05:14:27.029Z,0.49
2023-01-28T05:17:05.596Z,0.30
2023-01-28T05:19:33.408Z,0.27
2023-01-28T05:22:02.461Z,0.26
2023-01-28T05:24:52.837Z,0.27
2023-01-28T05:27:20.438Z,0.27
2023-01-28T05:29:47.810Z,0.19
2023-01-28T05:32:15.203Z,0.06
2023-01-28T05:34:42.631Z,-0.07
2023-01-28T05:37:13.031Z,-0.09
2023-01-28T05:39:40.382Z,-0.07
2023-01-28T05:42:07.699Z,0.03
2023-01-28T05:44:38.371Z,-0.01
2023-01-28T05:47:15.828Z,-0.04
2023-01-28T05:49:47.168Z,-0.04
2023-01-28T05:52:32.041Z,-0.14
2023-01-28T05:54:59.661Z,-0.18
2023-01-28T05:57:27.023Z,-0.25
2023-01-28T05:59:54.542Z,-0.23
2023-01-28T06:02:22.169Z,-0.23
2023-01-28T06:04:53.342Z,-0.29
2023-01-28T06:07:20.750Z,-0.29
2023-01-28T06:09:48.891Z,-0.26
2023-01-28T06:12:19.854Z,-0.26
2023-01-28T06:15:03.182Z,-0.26
2023-01-28T06:17:49.871Z,-0.29
2023-01-28T06:20:37.440Z,-0.26
2023-01-28T06:23:06.293Z,-0.23
2023-01-28T06:25:33.714Z,-0.22
2023-01-28T06:28:06.532Z,-0.15
2023-01-28T06:30:33.937Z,-0.17
2023-01-28T06:33:01.283Z,-0.26
2023-01-28T06:35:28.571Z,-0.22
2023-01-28T06:37:55.865Z,-0.22
2023-01-28T06:40:23.242Z,-0.22
2023-01-28T06:42:50.525Z,-0.26
2023-01-28T06:45:18.970Z,-0.21
2023-01-28T06:47:46.191Z,-0.22
2023-01-28T06:50:13.924Z,-0.05
2023-01-28T06:52:41.909Z,-0.04
2023-01-28T06:55:09.716Z,-0.08
2023-01-28T06:57:40.828Z,-0.01
2023-01-28T07:00:10.667Z,-0.07
2023-01-28T07:02:38.065Z,-0.08
2023-01-28T07:05:06.086Z,-0.01
2023-01-28T07:07:33.404Z,0.02
2023-01-28T07:10:00.847Z,0.05
2023-01-28T07:12:28.164Z,0.10
2023-01-28T07:14:55.545Z,0.14
2023-01-28T07:17:22.840Z,0.12
2023-01-28T07:19:50.229Z,0.22
2023-01-28T07:22:17.505Z,0.16
2023-01-28T07:24:44.805Z,0.06
2023-01-28T07:27:12.109Z,0.12
2023-01-28T07:29:39.467Z,0.13
2023-01-28T07:32:07.472Z,0.14
2023-01-28T07:34:37.611Z,0.17
2023-01-28T07:37:05.022Z,0.27
2023-01-28T07:39:32.314Z,0.33
2023-01-28T07:41:59.593Z,0.37
2023-01-28T07:44:37.675Z,0.41
2023-01-28T07:47:05.543Z,0.49
2023-01-28T07:49:35.869Z,0.65
2023-01-28T07:52:03.191Z,0.70
2023-01-28T07:54:30.477Z,0.72
2023-01-28T07:56:57.789Z,0.70
2023-01-28T07:59:25.072Z,0.74
2023-01-28T08:01:55.092Z,0.64
2023-01-28T08:04:22.751Z,0.70
2023-01-28T08:06:52.367Z,0.72
2023-01-28T08:09:19.691Z,0.72
2023-01-28T08:11:46.979Z,0.75
2023-01-28T08:14:14.425Z,0.82
2023-01-28T08:16:41.892Z,0.74
2023-01-28T08:19:09.289Z,0.70
2023-01-28T08:21:36.575Z,0.85
2023-01-28T08:24:04.240Z,0.87
2023-01-28T08:26:31.503Z,0.88
2023-01-28T08:28:58.890Z,0.92
2023-01-28T08:31:26.194Z,0.99
2023-01-28T08:33:53.576Z,0.96
2023-01-28T08:36:20.840Z,0.99
2023-01-28T08:38:54.210Z,0.92
2023-01-28T08:41:22.685Z,0.89
2023-01-28T08:43:49.980Z,0.96
2023-01-28T08:46:17.414Z,0.89
2023-01-28T08:48:44.693Z,0.88
2023-01-28T08:51:12.072Z,0.75
2023-01-28T08:53:39.391Z,0.85
2023-01-28T08:56:07.010Z,0.96
2023-01-28T08:58:34.285Z,0.89
2023-01-28T09:01:07.913Z,0.84
2023-01-28T09:03:36.362Z,0.89
2023-01-28T09:06:04.098Z,0.96
2023-01-28T09:08:31.683Z,0.98
2023-01-28T09:10:59.183Z,0.91
2023-01-28T09:13:27.131Z,0.96
2023-01-28T09:15:54.461Z,0.87
2023-01-28T09:18:21.967Z,0.89
2023-01-28T09:20:49.265Z,0.92
2023-01-28T09:23:16.712Z,0.98
2023-01-28T09:25:43.970Z,0.96
2023-01-28T09:28:11.405Z,1.02
2023-01-28T09:30:39.733Z,1.11
2023-01-28T09:33:07.348Z,1.05
2023-01-28T09:35:34.730Z,1.03
2023-01-28T09:38:02.141Z,1.18
2023-01-28T09:40:38.613Z,1.09
2023-01-28T09:43:09.689Z,1.12
2023-01-28T09:45:41.834Z,1.15
2023-01-28T09:48:30.801Z,1.08
2023-01-28T09:50:58.236Z,1.11
2023-01-28T09:53:32.749Z,1.19
2023-01-28T09:56:05.818Z,1.23
2023-01-28T09:58:33.305Z,1.29
2023-01-28T10:01:19.275Z,1.28
2023-01-28T10:03:52.956Z,1.19
2023-01-28T10:06:32.396Z,1.18
2023-01-28T10:09:02.496Z,1.23
2023-01-28T10:11:41.991Z,1.30
2023-01-28T10:14:37.404Z,1.35
2023-01-28T10:17:15.615Z,1.35
2023-01-28T10:19:45.884Z,1.35
2023-01-28T10:22:17.268Z,1.36
2023-01-28T10:24:49.499Z,1.40
2023-01-28T10:27:19.473Z,1.25
2023-01-28T10:29:50.011Z,1.32
2023-01-28T10:32:34.438Z,1.36
2023-01-28T10:35:03.113Z,1.43
2023-01-28T10:37:37.377Z,1.47
2023-01-28T10:40:05.247Z,1.47
2023-01-28T10:42:34.207Z,1.53
2023-01-28T10:45:21.042Z,1.51
2023-01-28T10:47:52.091Z,1.50
2023-01-28T10:50:24.275Z,1.51
2023-01-28T10:53:02.046Z,1.54
2023-01-28T10:55:36.678Z,1.49
2023-01-28T10:58:04.801Z,1.54
2023-01-28T11:00:36.417Z,1.49
2023-01-28T11:03:03.921Z,1.47
2023-01-28T11:05:31.455Z,1.49
2023-01-28T11:08:14.929Z,1.56
2023-01-28T11:10:42.777Z,1.46
2023-01-28T11:13:18.238Z,1.43
2023-01-28T11:15:49.943Z,1.40
2023-01-28T11:18:28.665Z,1.46
2023-01-28T11:21:03.998Z,1.49
2023-01-28T11:23:33.640Z,1.50
2023-01-28T11:26:24.617Z,1.38
2023-01-28T11:28:52.851Z,1.39
2023-01-28T11:31:21.921Z,1.36
2023-01-28T11:33:59.412Z,1.43
2023-01-28T11:36:31.315Z,1.35
2023-01-28T11:39:05.602Z,1.49
2023-01-28T11:41:37.470Z,1.49
2023-01-28T11:44:27.518Z,1.43
2023-01-28T11:47:28.313Z,1.59
2023-01-28T11:50:20.733Z,1.47
2023-01-28T11:53:17.016Z,1.44
2023-01-28T11:55:44.629Z,1.54
2023-01-28T11:58:12.428Z,1.59
2023-01-28T12:01:01.962Z,1.64
2023-01-28T12:03:29.328Z,1.60
2023-01-28T12:06:35.840Z,1.61
2023-01-28T12:09:44.627Z,1.77
2023-01-28T12:12:33.783Z,1.64
2023-01-28T12:15:13.063Z,1.57
2023-01-28T12:18:31.612Z,1.61
2023-01-28T12:21:08.358Z,1.47
2023-01-28T12:23:58.122Z,1.53
2023-01-28T12:26:44.372Z,1.61
2023-01-28T12:29:38.083Z,1.42
2023-01-28T12:32:40.272Z,1.39
2023-01-28T12:35:35.506Z,1.49
2023-01-28T12:38:10.113Z,1.57
2023-01-28T12:40:55.790Z,1.73
2023-01-28T12:43:25.710Z,1.67
2023-01-28T12:45:58.428Z,1.75
2023-01-28T12:48:33.095Z,1.78
2023-01-28T12:51:16.831Z,1.88
2023-01-28T12:54:06.462Z,2.05
2023-01-28T12:56:38.180Z,1.94
2023-01-28T12:59:14.729Z,1.85
2023-01-28T13:02:05.251Z,1.77
2023-01-28T13:04:41.083Z,1.64
2023-01-28T13:07:15.889Z,1.59
2023-01-28T13:10:05.684Z,1.66
2023-01-28T13:12:33.532Z,1.50
2023-01-28T13:15:00.853Z,1.42
2023-01-28T13:17:29.886Z,1.39
2023-01-28T13:19:58.108Z,1.42
2023-01-28T13:22:36.114Z,1.46
2023-01-28T13:25:24.096Z,1.49
2023-01-28T13:28:02.013Z,1.33
2023-01-28T13:30:34.171Z,1.22
2023-01-28T13:33:06.045Z,1.32
2023-01-28T13:35:34.806Z,1.28
2023-01-28T13:38:19.142Z,1.16
2023-01-28T13:41:06.674Z,1.21
2023-01-28T13:43:34.057Z,1.19
2023-01-28T13:46:03.558Z,1.29
2023-01-28T13:48:40.199Z,1.23
2023-01-28T13:51:17.014Z,1.19
2023-01-28T13:53:51.731Z,1.22
2023-01-28T13:56:22.314Z,1.35
2023-01-28T13:59:11.435Z,1.44
2023-01-28T14:01:51.087Z,1.36
2023-01-28T14:04:40.122Z,1.25
2023-01-28T14:07:10.427Z,1.26
2023-01-28T14:09:52.723Z,1.29
2023-01-28T14:12:38.337Z,1.25
2023-01-28T14:15:30.589Z,1.39
2023-01-28T14:17:58.183Z,1.39
2023-01-28T14:20:37.848Z,1.38
2023-01-28T14:23:07.207Z,1.32
2023-01-28T14:25:39.683Z,1.30
2023-01-28T14:28:07.117Z,1.35
2023-01-28T14:31:23.008Z,1.35
2023-01-28T14:33:50.527Z,1.38
2023-01-28T14:36:17.790Z,1.39
2023-01-28T14:38:45.090Z,1.42
2023-01-28T14:41:27.832Z,1.42
2023-01-28T14:43:55.285Z,1.50
2023-01-28T14:46:41.345Z,1.44
2023-01-28T14:49:40.343Z,1.35
2023-01-28T14:52:26.009Z,1.26
2023-01-28T14:55:27.847Z,1.30
2023-01-28T14:57:59.995Z,1.30
2023-01-28T15:00:32.534Z,1.44
2023-01-28T15:03:00.189Z,1.29
2023-01-28T15:05:28.237Z,1.36
2023-01-28T15:07:56.247Z,1.19
2023-01-28T15:10:33.485Z,1.18
2023-01-28T15:13:05.926Z,1.28
2023-01-28T15:15:38.063Z,1.21
2023-01-28T15:18:14.217Z,1.19
2023-01-28T15:20:45.114Z,1.13
2023-01-28T15:25:46.994Z,1.19
2023-01-28T15:28:18.987Z,1.25
2023-01-28T15:30:47.788Z,1.15
2023-01-28T15:33:17.225Z,1.08
2023-01-28T15:35:48.457Z,1.15
2023-01-28T15:38:17.937Z,1.16
2023-01-28T15:40:50.024Z,1.13
2023-01-28T15:43:25.555Z,1.16
2023-01-28T15:45:56.057Z,1.25
2023-01-28T15:48:25.145Z,1.23
2023-01-28T15:51:20.590Z,1.21
2023-01-28T15:53:48.413Z,1.19
2023-01-28T15:56:15.760Z,1.21
2023-01-28T15:58:43.258Z,1.18
2023-01-28T16:01:10.558Z,1.23
2023-01-28T16:03:41.463Z,1.26
2023-01-28T16:06:19.374Z,1.25
2023-01-28T16:08:48.348Z,1.25
2023-01-28T16:11:22.291Z,1.28
2023-01-28T16:13:49.852Z,1.28
2023-01-28T16:16:28.511Z,1.21
2023-01-28T16:18:56.150Z,1.25
2023-01-28T16:21:32.533Z,1.26
2023-01-28T16:24:05.200Z,1.19
2023-01-28T16:26:34.419Z,1.32
2023-01-28T16:29:21.864Z,1.28
2023-01-28T16:31:49.366Z,1.28
2023-01-28T16:34:16.654Z,1.38
2023-01-28T16:36:44.014Z,1.35
2023-01-28T16:39:11.272Z,1.28
2023-01-28T16:41:40.917Z,1.32
2023-01-28T16:44:13.602Z,1.39
2023-01-28T16:46:41.538Z,1.36
2023-01-28T16:49:09.516Z,1.36
2023-01-28T16:51:37.833Z,1.26
2023-01-28T16:54:05.356Z,1.29
2023-01-28T16:56:48.139Z,1.35
2023-01-28T16:59:16.252Z,1.35
2023-01-28T17:01:44.404Z,1.35
2023-01-28T17:04:13.046Z,1.35
2023-01-28T17:06:43.230Z,1.39
2023-01-28T17:09:12.212Z,1.32
2023-01-28T17:11:42.446Z,1.33
2023-01-28T17:14:10.754Z,1.35
2023-01-28T17:16:38.490Z,1.38
2023-01-28T17:19:05.991Z,1.38
2023-01-28T17:21:33.338Z,1.33
2023-01-28T17:24:01.443Z,1.42
2023-01-28T17:26:31.599Z,1.26
2023-01-28T17:28:58.921Z,1.32
2023-01-28T17:31:26.716Z,1.25
2023-01-28T17:33:55.402Z,1.25
2023-01-28T17:36:23.476Z,1.29
2023-01-28T17:38:50.912Z,1.26
2023-01-28T17:41:18.324Z,1.28
2023-01-28T17:43:53.076Z,1.36
2023-01-28T17:46:20.674Z,1.35
2023-01-28T17:48:48.011Z,1.32
2023-01-28T17:51:17.123Z,1.33
2023-01-28T17:54:03.118Z,1.44
2023-01-28T17:56:31.250Z,1.46
2023-01-28T17:59:02.395Z,1.42
2023-01-28T18:01:30.317Z,1.42
2023-01-28T18:04:00.925Z,1.43
2023-01-28T18:06:32.664Z,1.43
2023-01-28T18:09:00.066Z,1.43
2023-01-28T18:11:28.638Z,1.57
2023-01-28T18:13:56.167Z,1.61
2023-01-28T18:16:23.492Z,1.60
2023-01-28T18:18:50.866Z,1.50
2023-01-28T18:21:42.911Z,1.60
2023-01-28T18:24:14.173Z,1.57
2023-01-28T18:26:41.561Z,1.56
2023-01-28T18:29:08.949Z,1.49
2023-01-28T18:31:36.296Z,1.46
2023-01-28T18:34:03.725Z,1.49
2023-01-28T18:36:31.069Z,1.56
2023-01-28T18:38:58.362Z,1.61
2023-01-28T18:41:25.652Z,1.57
2023-01-28T18:43:53.069Z,1.66
2023-01-28T18:46:20.467Z,1.60
2023-01-28T18:48:47.933Z,1.53
2023-01-28T18:51:28.866Z,1.57
2023-01-28T18:54:02.636Z,1.59
2023-01-28T18:56:30.225Z,1.59
2023-01-28T18:59:01.862Z,1.56
2023-01-28T19:01:29.564Z,1.53
2023-01-28T19:03:57.300Z,1.49
2023-01-28T19:06:25.025Z,1.60
2023-01-28T19:08:57.444Z,1.61
2023-01-28T19:11:25.680Z,1.60
2023-01-28T19:13:52.985Z,1.67
2023-01-28T19:16:20.780Z,1.63
2023-01-28T19:18:55.526Z,1.68
2023-01-28T19:21:23.465Z,1.67
2023-01-28T19:23:57.704Z,1.67
2023-01-28T19:26:25.794Z,1.66
2023-01-28T19:28:53.165Z,1.67
2023-01-28T19:31:21.066Z,1.63
2023-01-28T19:33:48.636Z,1.64
2023-01-28T19:36:16.128Z,1.57
2023-01-28T19:38:43.558Z,1.67
2023-01-28T19:41:13.709Z,1.67
2023-01-28T19:43:41.166Z,1.67
2023-01-28T19:46:09.480Z,1.59
2023-01-28T19:48:36.926Z,1.54
2023-01-28T19:51:08.082Z,1.67
2023-01-28T19:53:36.138Z,1.63
2023-01-28T19:56:04.172Z,1.60
2023-01-28T19:58:35.363Z,1.59
2023-01-28T20:01:13.721Z,1.57
2023-01-28T20:03:41.142Z,1.59
2023-01-28T20:06:11.775Z,1.59
2023-01-28T20:08:39.295Z,1.70
2023-01-28T20:11:08.677Z,1.56
2023-01-28T20:13:36.296Z,1.56
2023-01-28T20:16:07.701Z,1.63
2023-01-28T20:18:35.461Z,1.67
2023-01-28T20:21:05.185Z,1.59
2023-01-28T20:23:33.053Z,1.59
2023-01-28T20:26:03.106Z,1.67
2023-01-28T20:28:30.628Z,1.66
2023-01-28T20:30:58.359Z,1.61
2023-01-28T20:33:25.924Z,1.60
2023-01-28T20:35:53.281Z,1.59
2023-01-28T20:38:20.837Z,1.64
2023-01-28T20:40:48.126Z,1.54
2023-01-28T20:43:15.899Z,1.66
2023-01-28T20:45:43.398Z,1.63
2023-01-28T20:48:11.001Z,1.61
2023-01-28T20:50:38.592Z,1.56
2023-01-28T20:53:06.051Z,1.60
2023-01-28T20:55:33.417Z,1.60
2023-01-28T20:58:01.632Z,1.74
2023-01-28T21:00:29.013Z,1.70
2023-01-28T21:02:56.628Z,1.61
2023-01-28T21:05:24.053Z,1.66
2023-01-28T21:07:51.699Z,1.67
2023-01-28T21:10:19.370Z,1.71
2023-01-28T21:12:46.886Z,1.61
2023-01-28T21:15:14.298Z,1.61
2023-01-28T21:17:41.742Z,1.61
2023-01-28T21:20:10.300Z,1.67
2023-01-28T21:22:37.774Z,1.60
2023-01-28T21:25:05.724Z,1.64
2023-01-28T21:27:35.809Z,1.61
2023-01-28T21:30:03.464Z,1.54
2023-01-28T21:32:30.994Z,1.60
2023-01-28T21:34:58.320Z,1.56
2023-01-28T21:37:25.823Z,1.53
2023-01-28T21:39:53.091Z,1.54
2023-01-28T21:42:20.471Z,1.57
2023-01-28T21:44:47.930Z,1.60
2023-01-28T21:47:15.634Z,1.60
2023-01-28T21:49:43.055Z,1.60
2023-01-28T21:52:12.250Z,1.66
2023-01-28T21:54:39.677Z,1.64
2023-01-28T21:57:07.100Z,1.60
2023-01-28T21:59:36.013Z,1.63
2023-01-28T22:02:09.859Z,1.56
2023-01-28T22:04:38.464Z,1.64
2023-01-28T22:07:07.052Z,1.66
2023-01-28T22:09:34.785Z,1.56
2023-01-28T22:12:03.774Z,1.56
2023-01-28T22:14:31.196Z,1.53
2023-01-28T22:16:58.594Z,1.50
2023-01-28T22:19:26.120Z,1.54
2023-01-28T22:21:53.465Z,1.53
2023-01-28T22:24:25.313Z,1.54
2023-01-28T22:26:53.481Z,1.56
2023-01-28T22:29:21.770Z,1.64
2023-01-28T22:31:50.140Z,1.49
2023-01-28T22:34:17.687Z,1.44
2023-01-28T22:36:45.157Z,1.47
2023-01-28T22:39:14.372Z,1.38
2023-01-28T22:41:42.441Z,1.42
2023-01-28T22:44:09.703Z,1.47
2023-01-28T22:46:37.108Z,1.60
2023-01-28T22:49:05.462Z,1.57
2023-01-28T22:51:34.678Z,1.49
2023-01-28T22:54:02.139Z,1.49
2023-01-28T22:56:29.682Z,1.53
2023-01-28T22:59:01.387Z,1.50
2023-01-28T23:01:29.053Z,1.60
2023-01-28T23:03:56.502Z,1.57
2023-01-28T23:06:24.774Z,1.63
2023-01-28T23:08:52.098Z,1.56
2023-01-28T23:11:25.596Z,1.56
2023-01-28T23:14:27.464Z,1.49
2023-01-28T23:17:13.299Z,1.53
2023-01-28T23:19:59.390Z,1.56
2023-01-28T23:22:50.177Z,1.57
2023-01-28T23:25:18.064Z,1.50
2023-01-28T23:27:45.364Z,1.50
2023-01-28T23:30:13.259Z,1.43
2023-01-28T23:32:49.969Z,1.60
2023-01-28T23:35:19.137Z,1.54
2023-01-28T23:37:47.030Z,1.54
2023-01-28T23:40:15.099Z,1.56
2023-01-28T23:42:42.600Z,1.57
2023-01-28T23:45:11.117Z,1.56
2023-01-28T23:47:38.451Z,1.67
2023-01-28T23:50:06.087Z,1.59
2023-01-28T23:52:33.420Z,1.57
2023-01-28T23:55:00.766Z,1.61
2023-01-28T23:57:28.093Z,1.59
2023-01-28T23:59:55.572Z,1.59
